Time;durP1;ratioP1;P1;durP2;ratioP2;P2;SDS_P1;SDS_P2;PMS_P1;PMS_P2;Temp;Humidity;BMP_temperature;BMP_pressure;BME280_temperature;BME280_humidity;BME280_pressure;Samples;Min_cycle;Max_cycle;Signal;HPM_P1;HPM_P2
2021/06/25 00:02:09;;;;;;;30.67;7.35;;;;;;;;;;5067944;28;20095;-66
2021/06/25 00:04:35;;;;;;;38.25;8.55;;;;;;;;;;5068246;28;20362;-64
2021/06/25 00:07:01;;;;;;;33.10;7.65;;;;;;;;;;5067653;28;20032;-67
2021/06/25 00:09:27;;;;;;;33.70;6.72;;;;;;;;;;5072634;28;20507;-64
2021/06/25 00:11:53;;;;;;;34.78;7.85;;;;;;;;;;5067391;28;20025;-66
2021/06/25 00:14:23;;;;;;;35.17;8.35;;;;;;;;;;5069374;28;20056;-67
2021/06/25 00:16:53;;;;;;;36.30;8.15;;;;;;;;;;5066629;28;20029;-66
2021/06/25 00:19:19;;;;;;;34.78;8.00;;;;;;;;;;5064736;28;20485;-63
2021/06/25 00:21:45;;;;;;;31.60;7.97;;;;;;;;;;5065585;28;20025;-65
2021/06/25 00:24:11;;;;;;;27.98;7.00;;;;;;;;;;5071306;28;20036;-66
2021/06/25 00:26:38;;;;;;;27.00;6.53;;;;;;;;;;5070481;28;20024;-65
2021/06/25 00:29:04;;;;;;;34.92;7.97;;;;;;;;;;5069400;28;20082;-63
2021/06/25 00:31:30;;;;;;;38.13;9.00;;;;;;;;;;5059055;28;20099;-65
2021/06/25 00:33:56;;;;;;;36.63;7.93;;;;;;;;;;5065609;28;20028;-63
2021/06/25 00:36:22;;;;;;;30.98;7.20;;;;;;;;;;5065582;28;20028;-65
2021/06/25 00:38:48;;;;;;;34.13;7.28;;;;;;;;;;5066283;28;20032;-67
2021/06/25 00:41:17;;;;;;;34.45;8.07;;;;;;;;;;5067260;28;20016;-67
2021/06/25 00:43:44;;;;;;;34.47;7.65;;;;;;;;;;5072731;28;20094;-64
2021/06/25 00:46:11;;;;;;;29.58;8.13;;;;;;;;;;5060246;28;20021;-66
2021/06/25 00:48:37;;;;;;;31.45;7.47;;;;;;;;;;5070028;28;20031;-66
2021/06/25 00:51:04;;;;;;;31.05;8.02;;;;;;;;;;5071779;28;20020;-66
2021/06/25 00:53:30;;;;;;;35.75;7.75;;;;;;;;;;5063594;28;20045;-66
2021/06/25 00:55:56;;;;;;;31.30;7.80;;;;;;;;;;5067139;28;20047;-65
2021/06/25 00:58:22;;;;;;;32.67;7.75;;;;;;;;;;5068187;28;20040;-64
2021/06/25 01:00:50;;;;;;;34.13;8.18;;;;;;;;;;5077130;28;20036;-66
2021/06/25 01:03:17;;;;;;;29.48;7.45;;;;;;;;;;5052110;28;20033;-62
2021/06/25 01:05:44;;;;;;;34.97;9.25;;;;;;;;;;5061335;28;20481;-67
2021/06/25 01:08:10;;;;;;;34.35;7.40;;;;;;;;;;5063038;28;20064;-66
2021/06/25 01:10:38;;;;;;;27.10;7.57;;;;;;;;;;5067569;28;20023;-62
2021/06/25 01:13:05;;;;;;;30.55;8.23;;;;;;;;;;5065230;28;20032;-64
2021/06/25 01:15:31;;;;;;;34.97;8.55;;;;;;;;;;5061570;28;20130;-67
2021/06/25 01:17:57;;;;;;;33.40;8.27;;;;;;;;;;5068544;28;20021;-65
2021/06/25 01:20:25;;;;;;;37.13;7.80;;;;;;;;;;5057490;28;20037;-65
2021/06/25 01:22:51;;;;;;;34.33;7.75;;;;;;;;;;5069088;28;20045;-63
2021/06/25 01:25:23;;;;;;;32.08;8.57;;;;;;;;;;5070384;28;20024;-65
2021/06/25 01:27:54;;;;;;;33.72;8.23;;;;;;;;;;5068052;28;20028;-66
2021/06/25 01:30:25;;;;;;;31.33;7.72;;;;;;;;;;5078117;28;20027;-66
2021/06/25 01:32:51;;;;;;;35.60;8.80;;;;;;;;;;5063418;28;20036;-66
2021/06/25 01:35:17;;;;;;;34.85;8.13;;;;;;;;;;5070279;28;20047;-66
2021/06/25 01:37:44;;;;;;;35.63;8.23;;;;;;;;;;5066636;28;20024;-62
2021/06/25 01:40:11;;;;;;;28.65;8.27;;;;;;;;;;5069833;28;20032;-65
2021/06/25 01:42:39;;;;;;;36.30;8.10;;;;;;;;;;5072031;28;20031;-64
2021/06/25 01:45:07;;;;;;;35.78;8.43;;;;;;;;;;5059327;28;20028;-66
2021/06/25 01:47:35;;;;;;;37.83;8.50;;;;;;;;;;5067167;28;20042;-66
2021/06/25 01:50:02;;;;;;;32.22;8.55;;;;;;;;;;5065508;28;20380;-65
2021/06/25 01:52:28;;;;;;;32.95;8.02;;;;;;;;;;5067060;28;20028;-63
2021/06/25 01:54:54;;;;;;;36.72;8.68;;;;;;;;;;5068250;28;20095;-64
2021/06/25 01:57:21;;;;;;;38.80;8.65;;;;;;;;;;5068002;28;20060;-62
2021/06/25 01:59:47;;;;;;;36.53;8.10;;;;;;;;;;5068750;28;20802;-62
2021/06/25 02:02:13;;;;;;;41.22;7.97;;;;;;;;;;5068756;28;20400;-62
2021/06/25 02:04:39;;;;;;;31.63;7.85;;;;;;;;;;5066940;28;20094;-61
2021/06/25 02:07:05;;;;;;;40.20;8.20;;;;;;;;;;5070998;28;20025;-67
2021/06/25 02:09:32;;;;;;;32.40;8.57;;;;;;;;;;5074689;28;20182;-65
2021/06/25 02:11:58;;;;;;;33.70;7.97;;;;;;;;;;5042420;28;20031;-64
2021/06/25 02:14:24;;;;;;;42.63;8.70;;;;;;;;;;5069918;28;20043;-66
2021/06/25 02:16:50;;;;;;;35.30;8.38;;;;;;;;;;5063741;28;20051;-63
2021/06/25 02:19:16;;;;;;;38.33;9.07;;;;;;;;;;5049035;28;20487;-64
2021/06/25 02:21:45;;;;;;;33.63;8.40;;;;;;;;;;5066782;28;20118;-67
2021/06/25 02:24:12;;;;;;;44.63;9.18;;;;;;;;;;5057653;28;20041;-66
2021/06/25 02:26:38;;;;;;;37.70;9.15;;;;;;;;;;5067795;28;20074;-63
2021/06/25 02:29:07;;;;;;;35.95;8.27;;;;;;;;;;5071944;28;20024;-65
2021/06/25 02:31:38;;;;;;;37.72;8.75;;;;;;;;;;5049342;28;20020;-66
2021/06/25 02:34:04;;;;;;;37.80;8.65;;;;;;;;;;5072408;28;20021;-66
2021/06/25 02:36:30;;;;;;;37.42;8.93;;;;;;;;;;5060346;28;20490;-64
2021/06/25 02:38:56;;;;;;;38.70;8.45;;;;;;;;;;5064383;28;20079;-63
2021/06/25 02:41:22;;;;;;;39.15;9.15;;;;;;;;;;5070312;28;20024;-63
2021/06/25 02:43:48;;;;;;;37.67;8.38;;;;;;;;;;5066372;28;20494;-62
2021/06/25 02:46:15;;;;;;;32.25;8.43;;;;;;;;;;5060116;28;20031;-66
2021/06/25 02:48:42;;;;;;;47.25;9.07;;;;;;;;;;5068357;28;20487;-63
2021/06/25 02:51:08;;;;;;;37.45;8.55;;;;;;;;;;5059909;28;20032;-62
2021/06/25 02:53:34;;;;;;;36.55;9.05;;;;;;;;;;5068893;28;20025;-66
2021/06/25 02:56:00;;;;;;;46.08;10.15;;;;;;;;;;5065819;28;20025;-63
2021/06/25 02:58:26;;;;;;;34.95;9.15;;;;;;;;;;5062873;28;20485;-62
2021/06/25 03:00:53;;;;;;;41.05;8.93;;;;;;;;;;5061435;28;20052;-63
2021/06/25 03:03:20;;;;;;;41.33;7.90;;;;;;;;;;5066435;28;20394;-62
2021/06/25 03:05:46;;;;;;;33.10;8.70;;;;;;;;;;5062832;28;20029;-62
2021/06/25 03:08:13;;;;;;;35.33;7.93;;;;;;;;;;5067759;28;20111;-65
2021/06/25 03:10:41;;;;;;;41.92;9.48;;;;;;;;;;5072688;28;20028;-62
2021/06/25 03:13:07;;;;;;;47.83;8.85;;;;;;;;;;5072328;28;20028;-63
2021/06/25 03:15:34;;;;;;;34.55;8.25;;;;;;;;;;5077682;28;20021;-64
2021/06/25 03:18:00;;;;;;;38.83;8.10;;;;;;;;;;5075662;28;20028;-66
2021/06/25 03:20:26;;;;;;;39.72;8.60;;;;;;;;;;5062242;28;20045;-63
2021/06/25 03:22:52;;;;;;;36.85;7.78;;;;;;;;;;5073976;28;20378;-65
2021/06/25 03:25:18;;;;;;;37.80;8.30;;;;;;;;;;5067855;28;20045;-62
2021/06/25 03:27:44;;;;;;;33.05;8.15;;;;;;;;;;5067836;28;20036;-63
2021/06/25 03:30:11;;;;;;;34.67;8.35;;;;;;;;;;5069222;28;20028;-64
2021/06/25 03:32:37;;;;;;;34.38;8.10;;;;;;;;;;5064670;28;20024;-63
2021/06/25 03:35:04;;;;;;;32.38;8.18;;;;;;;;;;5065815;28;20040;-62
2021/06/25 03:37:30;;;;;;;36.88;8.00;;;;;;;;;;5067605;28;20033;-64
2021/06/25 03:39:56;;;;;;;38.60;8.65;;;;;;;;;;5066624;28;20024;-62
2021/06/25 03:42:23;;;;;;;37.13;7.88;;;;;;;;;;5069171;28;20021;-66
2021/06/25 03:44:53;;;;;;;36.22;7.70;;;;;;;;;;5070328;28;20021;-66
2021/06/25 03:47:19;;;;;;;36.90;7.82;;;;;;;;;;5065625;28;20029;-62
2021/06/25 03:49:45;;;;;;;41.38;8.85;;;;;;;;;;5071860;28;20029;-63
2021/06/25 03:52:11;;;;;;;36.80;8.85;;;;;;;;;;5069028;28;20020;-64
2021/06/25 03:54:37;;;;;;;27.10;7.30;;;;;;;;;;5064817;28;20036;-62
2021/06/25 03:57:05;;;;;;;39.90;8.80;;;;;;;;;;5067246;28;20094;-63
2021/06/25 03:59:31;;;;;;;33.92;8.55;;;;;;;;;;5068420;28;20028;-63
2021/06/25 04:01:57;;;;;;;37.47;7.90;;;;;;;;;;5069171;28;20115;-64
2021/06/25 04:04:23;;;;;;;31.85;7.85;;;;;;;;;;5070949;28;20036;-62
2021/06/25 04:06:49;;;;;;;39.08;9.10;;;;;;;;;;5061572;28;20021;-71
2021/06/25 04:09:15;;;;;;;37.08;8.85;;;;;;;;;;5075795;28;20070;-67
2021/06/25 04:11:43;;;;;;;35.40;7.47;;;;;;;;;;5070285;28;20515;-70
2021/06/25 04:14:09;;;;;;;39.50;8.48;;;;;;;;;;5068548;28;20044;-70
2021/06/25 04:16:35;;;;;;;34.65;7.90;;;;;;;;;;5067623;28;20028;-71
2021/06/25 04:19:01;;;;;;;31.50;7.65;;;;;;;;;;5074743;28;20040;-66
2021/06/25 04:21:27;;;;;;;43.47;9.35;;;;;;;;;;5070447;28;20116;-63
2021/06/25 04:23:54;;;;;;;36.03;7.45;;;;;;;;;;5074511;28;20482;-63
2021/06/25 04:26:20;;;;;;;39.42;8.35;;;;;;;;;;5070296;28;20028;-63
2021/06/25 04:28:46;;;;;;;38.72;8.07;;;;;;;;;;5064322;28;20105;-66
2021/06/25 04:31:12;;;;;;;35.50;8.55;;;;;;;;;;5068995;28;20036;-70
2021/06/25 04:33:39;;;;;;;31.33;8.55;;;;;;;;;;5080383;28;20024;-69
2021/06/25 04:36:05;;;;;;;38.78;8.63;;;;;;;;;;5070363;28;20025;-64
2021/06/25 04:38:31;;;;;;;37.22;7.65;;;;;;;;;;5067175;28;20024;-66
2021/06/25 04:40:58;;;;;;;34.05;8.80;;;;;;;;;;5071751;28;20425;-63
2021/06/25 04:43:24;;;;;;;37.15;8.30;;;;;;;;;;5070613;28;20044;-65
2021/06/25 04:45:50;;;;;;;36.67;8.43;;;;;;;;;;5067940;28;20028;-63
2021/06/25 04:48:17;;;;;;;46.30;9.23;;;;;;;;;;5070268;28;20028;-71
2021/06/25 04:50:44;;;;;;;34.78;7.68;;;;;;;;;;5074554;28;20040;-65
2021/06/25 04:53:10;;;;;;;35.03;9.20;;;;;;;;;;5075795;28;20485;-62
2021/06/25 04:55:43;;;;;;;36.35;8.43;;;;;;;;;;5076100;28;20020;-68
2021/06/25 04:58:10;;;;;;;36.33;8.35;;;;;;;;;;5071502;28;20035;-63
2021/06/25 05:00:36;;;;;;;44.28;9.23;;;;;;;;;;5071572;28;20020;-69
2021/06/25 05:03:02;;;;;;;39.78;8.85;;;;;;;;;;5072327;28;20067;-64
2021/06/25 05:05:29;;;;;;;41.75;9.95;;;;;;;;;;5072110;28;20100;-67
2021/06/25 05:07:55;;;;;;;44.40;8.40;;;;;;;;;;5068188;28;20024;-69
2021/06/25 05:10:21;;;;;;;36.38;8.00;;;;;;;;;;5072655;28;20021;-67
2021/06/25 05:12:47;;;;;;;41.85;7.95;;;;;;;;;;5071208;28;20490;-63
2021/06/25 05:15:13;;;;;;;32.67;7.40;;;;;;;;;;5067353;28;20106;-62
2021/06/25 05:17:39;;;;;;;62.78;10.25;;;;;;;;;;5064803;28;20027;-66
2021/06/25 05:20:06;;;;;;;41.92;9.48;;;;;;;;;;5058083;28;20045;-70
2021/06/25 05:22:32;;;;;;;44.90;8.30;;;;;;;;;;5067307;28;20036;-69
2021/06/25 05:24:59;;;;;;;33.35;8.68;;;;;;;;;;5067271;28;20083;-67
2021/06/25 05:27:25;;;;;;;36.60;8.68;;;;;;;;;;5066572;28;20036;-67
2021/06/25 05:29:51;;;;;;;38.13;9.32;;;;;;;;;;5069108;28;20486;-69
2021/06/25 05:32:17;;;;;;;37.42;8.75;;;;;;;;;;5068761;28;20091;-72
2021/06/25 05:34:45;;;;;;;43.72;9.65;;;;;;;;;;5068193;28;20036;-66
2021/06/25 05:37:11;;;;;;;30.77;8.88;;;;;;;;;;5067149;28;20028;-71
2021/06/25 05:39:37;;;;;;;36.80;8.15;;;;;;;;;;5068344;28;20024;-74
2021/06/25 05:42:04;;;;;;;40.90;9.02;;;;;;;;;;5063708;28;20056;-65
2021/06/25 05:44:30;;;;;;;39.22;8.55;;;;;;;;;;5074129;28;20036;-67
2021/06/25 05:46:56;;;;;;;41.05;9.05;;;;;;;;;;5068540;28;20482;-72
2021/06/25 05:49:22;;;;;;;34.40;8.10;;;;;;;;;;5070464;28;20032;-71
2021/06/25 05:51:49;;;;;;;31.90;7.88;;;;;;;;;;5078107;28;20531;-68
2021/06/25 05:54:15;;;;;;;31.88;7.95;;;;;;;;;;5065335;28;20036;-72
2021/06/25 05:56:41;;;;;;;39.20;8.63;;;;;;;;;;5066489;28;20078;-71
2021/06/25 05:59:08;;;;;;;28.35;8.10;;;;;;;;;;5064555;28;20024;-63
2021/06/25 06:01:34;;;;;;;36.17;7.75;;;;;;;;;;5070648;28;20482;-73
2021/06/25 06:04:00;;;;;;;38.47;8.70;;;;;;;;;;5069846;28;20048;-74
2021/06/25 06:06:26;;;;;;;36.75;7.47;;;;;;;;;;5070694;28;20486;-68
2021/06/25 06:08:52;;;;;;;30.70;7.70;;;;;;;;;;5063520;28;20031;-70
2021/06/25 06:11:18;;;;;;;28.27;6.68;;;;;;;;;;5072751;28;20070;-64
2021/06/25 06:13:44;;;;;;;27.75;7.15;;;;;;;;;;5068395;28;20059;-69
2021/06/25 06:16:10;;;;;;;28.73;7.47;;;;;;;;;;5060968;28;20040;-71
2021/06/25 06:18:49;;;;;;;30.67;6.55;;;;;;;;;;5063643;28;20111;-73
2021/06/25 06:21:16;;;;;;;31.50;7.68;;;;;;;;;;5080449;28;20362;-82
2021/06/25 06:34:31;;;;;;;30.85;7.40;;;;;;;;;;5063781;28;20033;-69
2021/06/25 06:36:57;;;;;;;29.77;7.13;;;;;;;;;;5058912;28;20445;-71
2021/06/25 06:39:23;;;;;;;29.65;7.40;;;;;;;;;;5068389;28;20393;-71
2021/06/25 06:41:49;;;;;;;32.42;7.38;;;;;;;;;;5070618;28;20048;-73
2021/06/25 06:44:15;;;;;;;35.17;8.23;;;;;;;;;;5069457;28;20111;-78
2021/06/25 06:46:41;;;;;;;44.95;8.68;;;;;;;;;;5046860;28;20037;-72
2021/06/25 06:49:08;;;;;;;32.05;7.20;;;;;;;;;;5071609;28;20032;-69
2021/06/25 06:51:34;;;;;;;30.63;7.53;;;;;;;;;;5050662;28;20082;-71
2021/06/25 06:54:01;;;;;;;37.53;7.07;;;;;;;;;;5071764;28;20032;-70
2021/06/25 06:56:28;;;;;;;31.85;6.90;;;;;;;;;;5052590;28;20093;-71
2021/06/25 06:58:55;;;;;;;35.72;7.75;;;;;;;;;;5067710;28;20024;-70
2021/06/25 07:01:21;;;;;;;32.45;8.32;;;;;;;;;;5076372;28;20039;-72
2021/06/25 07:03:48;;;;;;;27.83;7.20;;;;;;;;;;5071168;28;20550;-72
2021/06/25 07:06:14;;;;;;;29.15;7.93;;;;;;;;;;5069400;28;20096;-75
2021/06/25 07:08:41;;;;;;;26.95;6.82;;;;;;;;;;5071882;28;20485;-73
2021/06/25 07:11:07;;;;;;;27.88;7.82;;;;;;;;;;5065991;28;20074;-80
2021/06/25 07:13:33;;;;;;;34.00;6.90;;;;;;;;;;5064897;28;20096;-80
2021/06/25 07:15:59;;;;;;;33.42;7.25;;;;;;;;;;5048594;28;20033;-77
2021/06/25 07:18:26;;;;;;;31.70;7.82;;;;;;;;;;5068936;28;20047;-78
2021/06/25 07:20:52;;;;;;;31.85;7.32;;;;;;;;;;5071254;28;20514;-66
2021/06/25 07:23:18;;;;;;;26.95;7.13;;;;;;;;;;5069339;28;20483;-67
2021/06/25 07:25:44;;;;;;;29.20;7.10;;;;;;;;;;5066709;28;20548;-69
2021/06/25 07:28:10;;;;;;;28.85;7.03;;;;;;;;;;5070048;28;20083;-71
2021/06/25 07:30:36;;;;;;;34.10;7.68;;;;;;;;;;5065352;28;20096;-75
2021/06/25 07:33:07;;;;;;;34.40;7.68;;;;;;;;;;5070895;28;20035;-69
2021/06/25 07:35:34;;;;;;;32.33;6.93;;;;;;;;;;5066058;28;20029;-71
2021/06/25 07:38:00;;;;;;;35.33;7.53;;;;;;;;;;5059557;28;20063;-69
2021/06/25 07:40:26;;;;;;;37.85;7.80;;;;;;;;;;5070666;28;20024;-71
2021/06/25 07:42:52;;;;;;;32.47;7.55;;;;;;;;;;5061913;28;20069;-77
2021/06/25 07:45:18;;;;;;;32.35;7.05;;;;;;;;;;5057814;28;20020;-78
2021/06/25 07:47:45;;;;;;;36.38;7.85;;;;;;;;;;5062543;28;20097;-76
2021/06/25 07:50:13;;;;;;;32.55;7.13;;;;;;;;;;5055353;28;20508;-78
2021/06/25 07:52:39;;;;;;;31.55;7.20;;;;;;;;;;5070451;28;20386;-81
2021/06/25 07:55:11;;;;;;;40.55;8.13;;;;;;;;;;5065933;28;20561;-82
2021/06/25 07:57:38;;;;;;;39.08;8.20;;;;;;;;;;5069558;28;20021;-75
2021/06/25 08:00:05;;;;;;;29.77;7.60;;;;;;;;;;5067247;28;20086;-66
2021/06/25 08:02:31;;;;;;;34.00;7.78;;;;;;;;;;5069449;28;20025;-63
2021/06/25 08:04:57;;;;;;;30.60;7.22;;;;;;;;;;5063238;28;20040;-72
2021/06/25 08:07:23;;;;;;;36.05;7.50;;;;;;;;;;5071250;28;20027;-66
2021/06/25 08:09:49;;;;;;;26.25;6.55;;;;;;;;;;5060691;28;20025;-80
2021/06/25 08:12:15;;;;;;;33.72;7.53;;;;;;;;;;5069121;28;20032;-66
2021/06/25 08:14:42;;;;;;;32.90;7.78;;;;;;;;;;5072821;28;20108;-74
2021/06/25 08:17:09;;;;;;;20.55;6.32;;;;;;;;;;5048535;28;20044;-78
2021/06/25 08:19:35;;;;;;;30.15;6.72;;;;;;;;;;5050880;28;20037;-76
2021/06/25 08:22:01;;;;;;;27.73;6.88;;;;;;;;;;5068088;28;20097;-76
2021/06/25 08:24:27;;;;;;;33.53;7.47;;;;;;;;;;5069539;28;20041;-77
2021/06/25 08:26:55;;;;;;;33.42;7.70;;;;;;;;;;5067197;28;20021;-85
2021/06/25 08:29:21;;;;;;;25.60;6.90;;;;;;;;;;5055350;28;20028;-75
2021/06/25 08:31:48;;;;;;;38.53;8.32;;;;;;;;;;5060498;28;20118;-77
2021/06/25 08:34:14;;;;;;;36.67;7.35;;;;;;;;;;5066084;28;20020;-73
2021/06/25 08:36:40;;;;;;;33.80;7.25;;;;;;;;;;5071417;28;20028;-70
2021/06/25 08:39:07;;;;;;;27.70;6.55;;;;;;;;;;5065318;28;20025;-65
2021/06/25 08:41:34;;;;;;;28.20;7.03;;;;;;;;;;5069916;28;20104;-68
2021/06/25 08:44:00;;;;;;;34.20;7.55;;;;;;;;;;5070416;28;20032;-71
2021/06/25 08:46:30;;;;;;;34.85;7.05;;;;;;;;;;5067358;28;20108;-69
2021/06/25 08:49:22;;;;;;;33.88;7.45;;;;;;;;;;5067543;28;20024;-70
2021/06/25 08:51:51;;;;;;;28.27;7.43;;;;;;;;;;5050608;28;20445;-69
2021/06/25 08:54:17;;;;;;;26.02;6.60;;;;;;;;;;5071415;28;20056;-70
2021/06/25 08:56:44;;;;;;;30.17;7.25;;;;;;;;;;5071689;28;20025;-67
2021/06/25 08:59:10;;;;;;;28.40;6.95;;;;;;;;;;5053308;28;20385;-66
2021/06/25 09:01:37;;;;;;;27.70;7.82;;;;;;;;;;5067968;28;20040;-67
2021/06/25 09:04:04;;;;;;;31.75;6.43;;;;;;;;;;5066052;28;20033;-66
2021/06/25 09:06:32;;;;;;;32.30;6.32;;;;;;;;;;5058341;28;20095;-81
2021/06/25 09:09:12;;;;;;;29.13;6.68;;;;;;;;;;5048298;28;20484;-65
2021/06/25 09:11:41;;;;;;;31.10;7.22;;;;;;;;;;5061006;28;20041;-68
2021/06/25 09:14:07;;;;;;;37.10;6.93;;;;;;;;;;5068916;28;20517;-67
2021/06/25 09:16:38;;;;;;;31.30;6.47;;;;;;;;;;5063616;28;20051;-65
2021/06/25 09:19:09;;;;;;;35.25;7.28;;;;;;;;;;5064774;28;20395;-65
2021/06/25 09:21:40;;;;;;;30.13;7.03;;;;;;;;;;5068769;28;20020;-67
2021/06/25 09:24:19;;;;;;;24.40;6.35;;;;;;;;;;5068029;28;20071;-67
2021/06/25 09:26:45;;;;;;;31.08;6.97;;;;;;;;;;5064435;28;20046;-68
2021/06/25 09:29:20;;;;;;;30.30;7.30;;;;;;;;;;5071527;28;20021;-64
2021/06/25 09:31:55;;;;;;;27.60;6.65;;;;;;;;;;5057123;28;20017;-66
2021/06/25 09:34:33;;;;;;;42.22;7.18;;;;;;;;;;5045783;28;20491;-66
2021/06/25 09:37:03;;;;;;;36.95;7.45;;;;;;;;;;5063590;28;20021;-67
2021/06/25 09:39:29;;;;;;;26.65;7.00;;;;;;;;;;5065766;28;20471;-72
2021/06/25 09:41:55;;;;;;;30.00;6.85;;;;;;;;;;5056606;28;20024;-86
2021/06/25 09:44:22;;;;;;;32.67;7.60;;;;;;;;;;5049502;28;20044;-78
2021/06/25 09:46:55;;;;;;;26.77;6.63;;;;;;;;;;5068171;28;20036;-79
2021/06/25 09:49:25;;;;;;;25.30;7.22;;;;;;;;;;5074202;28;20032;-77
2021/06/25 09:51:57;;;;;;;33.47;7.70;;;;;;;;;;5067103;28;20528;-78
2021/06/25 09:54:24;;;;;;;35.85;7.40;;;;;;;;;;5052576;28;20050;-76
2021/06/25 10:02:18;;;;;;;25.92;7.05;;;;;;;;;;5072644;28;20070;-67
2021/06/25 10:04:45;;;;;;;29.27;6.65;;;;;;;;;;5069763;28;20574;-70
2021/06/25 10:07:15;;;;;;;31.35;7.03;;;;;;;;;;5076384;28;20075;-68
2021/06/25 10:09:42;;;;;;;26.23;6.88;;;;;;;;;;5068211;28;20032;-70
2021/06/25 10:12:12;;;;;;;31.30;7.03;;;;;;;;;;5070187;28;20029;-72
2021/06/25 10:14:39;;;;;;;34.13;7.47;;;;;;;;;;5063226;28;20048;-73
2021/06/25 10:17:08;;;;;;;30.98;6.40;;;;;;;;;;5063150;28;20374;-74
2021/06/25 10:19:38;;;;;;;33.10;7.00;;;;;;;;;;5054756;28;20066;-74
2021/06/25 10:22:05;;;;;;;24.45;6.70;;;;;;;;;;5072590;28;20023;-69
2021/06/25 10:24:33;;;;;;;28.73;7.05;;;;;;;;;;5071982;28;20444;-66
2021/06/25 10:27:01;;;;;;;30.30;6.45;;;;;;;;;;5069330;28;20369;-86
2021/06/25 10:29:27;;;;;;;24.73;6.95;;;;;;;;;;5068016;28;20024;-85
2021/06/25 10:31:56;;;;;;;26.25;6.20;;;;;;;;;;5068403;28;20032;-70
2021/06/25 10:34:22;;;;;;;26.27;6.82;;;;;;;;;;5075858;28;20024;-71
2021/06/25 10:36:50;;;;;;;30.65;6.68;;;;;;;;;;5051122;28;20064;-71
2021/06/25 10:39:16;;;;;;;31.17;7.57;;;;;;;;;;5075618;28;20508;-75
2021/06/25 10:41:49;;;;;;;29.83;6.55;;;;;;;;;;5073045;28;20028;-66
2021/06/25 10:44:30;;;;;;;30.73;7.38;;;;;;;;;;5065207;28;20032;-67
2021/06/25 10:46:57;;;;;;;24.42;6.78;;;;;;;;;;5065140;28;20032;-69
2021/06/25 10:49:23;;;;;;;31.88;7.28;;;;;;;;;;5075389;28;20179;-70
2021/06/25 10:51:49;;;;;;;23.42;7.25;;;;;;;;;;5069254;28;20021;-68
2021/06/25 10:54:19;;;;;;;27.33;6.30;;;;;;;;;;5067122;28;20029;-69
2021/06/25 10:56:48;;;;;;;30.25;7.28;;;;;;;;;;5065662;28;20021;-74
2021/06/25 10:59:25;;;;;;;35.08;7.15;;;;;;;;;;5071274;28;20024;-67
2021/06/25 11:01:53;;;;;;;33.70;6.97;;;;;;;;;;5072744;28;20108;-64
2021/06/25 11:04:31;;;;;;;22.77;6.47;;;;;;;;;;5070384;28;20040;-63
2021/06/25 11:06:58;;;;;;;25.33;6.78;;;;;;;;;;5067895;28;20104;-70
2021/06/25 11:09:44;;;;;;;28.42;6.53;;;;;;;;;;5070789;28;20024;-63
2021/06/25 11:12:27;;;;;;;36.45;7.25;;;;;;;;;;5038884;28;20060;-71
2021/06/25 11:14:54;;;;;;;30.48;7.28;;;;;;;;;;5064214;28;20359;-71
2021/06/25 11:17:39;;;;;;;32.05;7.20;;;;;;;;;;5059900;28;20410;-69
2021/06/25 11:20:15;;;;;;;38.90;7.05;;;;;;;;;;5060499;28;20056;-72
2021/06/25 11:22:41;;;;;;;30.02;7.13;;;;;;;;;;5066872;28;20032;-63
2021/06/25 11:25:15;;;;;;;30.42;6.28;;;;;;;;;;5070962;28;20050;-69
2021/06/25 11:28:20;;;;;;;41.13;7.47;;;;;;;;;;5070330;28;20033;-70
2021/06/25 11:30:56;;;;;;;31.38;6.80;;;;;;;;;;4991156;28;20951;-71
2021/06/25 11:33:29;;;;;;;32.17;7.07;;;;;;;;;;4991377;28;20034;-62
2021/06/25 11:35:56;;;;;;;24.73;6.35;;;;;;;;;;4977364;28;20042;-65
2021/06/25 11:38:41;;;;;;;30.52;6.18;;;;;;;;;;4979568;28;20035;-68
2021/06/25 11:41:13;;;;;;;32.80;7.22;;;;;;;;;;4988853;28;20052;-68
2021/06/25 11:43:40;;;;;;;32.40;7.35;;;;;;;;;;4989643;28;20520;-65
2021/06/25 11:46:06;;;;;;;29.48;7.35;;;;;;;;;;4973002;28;20484;-62
2021/06/25 11:48:33;;;;;;;31.38;6.60;;;;;;;;;;4991047;28;20137;-62
2021/06/25 11:51:02;;;;;;;30.15;7.75;;;;;;;;;;4989209;28;20117;-64
2021/06/25 11:53:28;;;;;;;28.30;7.45;;;;;;;;;;4988721;28;20177;-67
2021/06/25 11:55:55;;;;;;;30.92;6.80;;;;;;;;;;4986290;28;20022;-71
2021/06/25 11:58:21;;;;;;;22.90;6.47;;;;;;;;;;4989646;28;20516;-68
2021/06/25 12:00:47;;;;;;;36.42;7.40;;;;;;;;;;4990515;28;20038;-71
2021/06/25 12:03:14;;;;;;;29.40;6.97;;;;;;;;;;4991351;28;20043;-69
2021/06/25 12:05:45;;;;;;;24.08;6.53;;;;;;;;;;5016333;28;20033;-68
2021/06/25 12:08:19;;;;;;;30.98;7.68;;;;;;;;;;5036782;28;20349;-71
2021/06/25 12:11:07;;;;;;;28.38;6.43;;;;;;;;;;5079020;28;20032;-72
2021/06/25 12:13:35;;;;;;;28.27;6.68;;;;;;;;;;5062244;28;20048;-71
2021/06/25 12:16:02;;;;;;;29.52;7.47;;;;;;;;;;5052572;28;20442;-71
2021/06/25 12:18:28;;;;;;;30.60;8.00;;;;;;;;;;5059074;28;20064;-63
2021/06/25 12:21:08;;;;;;;26.25;6.68;;;;;;;;;;5055983;28;20048;-71
2021/06/25 12:23:34;;;;;;;22.23;6.63;;;;;;;;;;5068486;28;20454;-71
2021/06/25 12:26:08;;;;;;;29.13;7.38;;;;;;;;;;5066404;28;20100;-68
2021/06/25 12:28:34;;;;;;;32.45;7.75;;;;;;;;;;5067604;28;20073;-66
2021/06/25 12:31:02;;;;;;;25.55;6.75;;;;;;;;;;5060863;28;20041;-70
2021/06/25 12:33:31;;;;;;;29.33;6.90;;;;;;;;;;5058002;28;20021;-71
2021/06/25 12:36:02;;;;;;;34.97;7.25;;;;;;;;;;5042611;28;20029;-68
2021/06/25 12:38:29;;;;;;;34.45;7.65;;;;;;;;;;5069218;28;20029;-63
2021/06/25 12:40:58;;;;;;;25.02;7.40;;;;;;;;;;5073321;28;20020;-70
2021/06/25 12:43:30;;;;;;;31.02;7.07;;;;;;;;;;5070954;28;20038;-68
2021/06/25 12:45:59;;;;;;;28.55;6.88;;;;;;;;;;5064584;28;20021;-69
2021/06/25 12:48:26;;;;;;;26.35;7.30;;;;;;;;;;5066192;28;20082;-71
2021/06/25 12:51:05;;;;;;;34.25;6.80;;;;;;;;;;5069895;28;20381;-71
2021/06/25 12:53:32;;;;;;;30.30;7.00;;;;;;;;;;5064284;28;20033;-70
2021/06/25 12:56:00;;;;;;;28.70;6.57;;;;;;;;;;5066538;28;20027;-66
2021/06/25 12:58:28;;;;;;;23.58;6.40;;;;;;;;;;5064867;28;20021;-67
2021/06/25 13:01:03;;;;;;;25.35;7.47;;;;;;;;;;5071383;28;20394;-69
2021/06/25 13:03:29;;;;;;;30.80;7.32;;;;;;;;;;5068472;28;20033;-69
2021/06/25 13:05:56;;;;;;;25.65;6.97;;;;;;;;;;5069658;28;20052;-68
2021/06/25 13:08:26;;;;;;;25.35;7.72;;;;;;;;;;5066785;28;20509;-65
2021/06/25 13:10:58;;;;;;;27.08;7.22;;;;;;;;;;5070540;28;20078;-66
2021/06/25 13:13:24;;;;;;;31.73;7.40;;;;;;;;;;5074268;28;20028;-69
2021/06/25 13:15:51;;;;;;;25.20;7.05;;;;;;;;;;5062175;28;20052;-70
2021/06/25 13:18:22;;;;;;;29.90;7.78;;;;;;;;;;5070598;28;20036;-70
2021/06/25 13:21:07;;;;;;;34.30;7.25;;;;;;;;;;5071861;28;20048;-71
2021/06/25 13:23:34;;;;;;;32.60;7.13;;;;;;;;;;5069686;28;20047;-71
2021/06/25 13:26:16;;;;;;;29.73;7.10;;;;;;;;;;5048198;28;20039;-65
2021/06/25 13:28:55;;;;;;;37.42;7.53;;;;;;;;;;5068437;28;20103;-64
2021/06/25 13:31:21;;;;;;;28.60;7.53;;;;;;;;;;5062886;28;20078;-67
2021/06/25 13:33:47;;;;;;;37.58;7.63;;;;;;;;;;5066085;28;20095;-70
2021/06/25 13:36:13;;;;;;;27.60;7.13;;;;;;;;;;5050932;28;20072;-73
2021/06/25 13:38:39;;;;;;;30.77;7.07;;;;;;;;;;5068096;28;20025;-75
2021/06/25 13:41:19;;;;;;;35.38;7.10;;;;;;;;;;5072028;28;20565;-78
2021/06/25 13:43:49;;;;;;;30.85;8.20;;;;;;;;;;5061414;28;20454;-74
2021/06/25 13:46:17;;;;;;;36.50;7.88;;;;;;;;;;5066686;28;20192;-81
2021/06/25 13:48:44;;;;;;;38.60;8.40;;;;;;;;;;5045881;28;20040;-86
2021/06/25 13:51:14;;;;;;;37.58;7.88;;;;;;;;;;5050099;28;20062;-77
2021/06/25 13:53:42;;;;;;;30.40;7.50;;;;;;;;;;5047205;28;20417;-78
2021/06/25 13:56:10;;;;;;;34.17;8.20;;;;;;;;;;5067631;28;20460;-74
2021/06/25 13:58:51;;;;;;;39.67;10.63;;;;;;;;;;5072807;28;20032;-78
2021/06/25 14:01:23;;;;;;;40.00;9.55;;;;;;;;;;5066519;28;20078;-81
2021/06/25 14:03:53;;;;;;;36.70;9.97;;;;;;;;;;5072192;28;20029;-80
2021/06/25 14:06:21;;;;;;;38.92;8.98;;;;;;;;;;5054595;28;20058;-73
2021/06/25 14:08:47;;;;;;;32.05;9.27;;;;;;;;;;5068180;28;20043;-81
2021/06/25 14:11:23;;;;;;;34.08;8.77;;;;;;;;;;5071041;28;20060;-71
2021/06/25 14:13:51;;;;;;;32.85;8.75;;;;;;;;;;5060820;28;20024;-79
2021/06/25 14:16:21;;;;;;;29.13;9.18;;;;;;;;;;5057292;28;20043;-72
2021/06/25 14:18:48;;;;;;;37.65;9.93;;;;;;;;;;5056856;28;20028;-76
2021/06/25 14:21:15;;;;;;;36.55;9.38;;;;;;;;;;5055065;28;20139;-77
2021/06/25 14:23:41;;;;;;;38.25;10.10;;;;;;;;;;5068492;28;20047;-75
2021/06/25 14:26:07;;;;;;;28.60;8.77;;;;;;;;;;5063929;28;20048;-74
2021/06/25 14:28:47;;;;;;;32.47;8.23;;;;;;;;;;5072983;28;20029;-77
2021/06/25 14:31:13;;;;;;;38.80;8.52;;;;;;;;;;5060220;28;20027;-73
2021/06/25 14:33:39;;;;;;;36.95;8.50;;;;;;;;;;5067217;28;20103;-77
2021/06/25 14:36:07;;;;;;;33.08;8.55;;;;;;;;;;5062925;28;20048;-76
2021/06/25 14:38:33;;;;;;;31.63;8.38;;;;;;;;;;5064484;28;20020;-75
2021/06/25 14:41:00;;;;;;;37.78;9.43;;;;;;;;;;5065547;28;20375;-77
2021/06/25 14:43:26;;;;;;;26.90;8.10;;;;;;;;;;5069297;28;20046;-77
2021/06/25 14:45:52;;;;;;;35.60;8.98;;;;;;;;;;5066150;28;20027;-77
2021/06/25 14:48:18;;;;;;;30.98;7.75;;;;;;;;;;5068176;28;20032;-78
2021/06/25 14:50:45;;;;;;;35.78;7.93;;;;;;;;;;5068628;28;20020;-78
2021/06/25 14:53:11;;;;;;;52.38;8.20;;;;;;;;;;5065372;28;20044;-77